createdAt,value
2019-06-07T04:11:35.005Z,99.90
2019-06-07T04:14:02.521Z,99.90
2019-06-07T04:16:34.713Z,99.90
2019-06-07T04:21:31.415Z,99.90
2019-06-07T04:23:59.462Z,99.90
2019-06-07T04:26:30.941Z,99.90
2019-06-07T04:33:54.513Z,99.90
2019-06-07T05:01:03.930Z,99.90
2019-06-07T05:03:37.069Z,99.90
2019-06-07T05:06:01.039Z,99.90
2019-06-07T05:08:31.493Z,99.90
2019-06-07T05:10:58.084Z,99.90
2019-06-07T05:13:25.744Z,99.90
2019-06-07T05:23:59.926Z,99.90
2019-06-07T05:25:51.456Z,99.90
2019-06-07T05:31:05.289Z,99.90
2019-06-07T05:38:12.236Z,99.90
2019-06-07T05:43:10.455Z,99.90
2019-06-07T05:48:11.251Z,99.90
2019-06-07T05:53:08.416Z,99.90
2019-06-07T06:25:33.361Z,99.90
2019-06-07T06:28:09.930Z,99.90
2019-06-07T06:30:26.647Z,99.90
2019-06-07T06:47:47.649Z,99.90
2019-06-07T06:50:14.624Z,99.90
2019-06-07T06:52:45.237Z,99.90
2019-06-07T06:55:11.794Z,99.90
2019-06-07T06:57:41.482Z,99.90
2019-06-07T07:00:10.372Z,99.90
2019-06-07T07:05:07.519Z,99.90
2019-06-07T07:07:35.265Z,99.90
2019-06-07T07:10:04.496Z,99.90
2019-06-07T07:12:33.115Z,99.90
2019-06-07T07:15:00.784Z,99.90
2019-06-07T07:42:21.217Z,99.90
2019-06-07T07:49:40.244Z,99.90
2019-06-07T07:57:02.752Z,99.90
2019-06-07T08:01:59.472Z,99.90
2019-06-07T08:05:12.224Z,99.90
2019-06-07T08:09:23.968Z,99.90
2019-06-07T08:11:52.941Z,99.90
2019-06-07T08:14:21.035Z,99.90
2019-06-07T08:16:49.323Z,99.90
2019-06-07T08:19:17.017Z,99.90
2019-06-07T08:21:44.715Z,99.90
2019-06-07T08:24:12.424Z,99.90
2019-06-07T08:26:40.107Z,99.90
2019-06-07T08:29:07.755Z,99.90
2019-06-07T08:31:35.403Z,99.90
2019-06-07T08:34:03.055Z,99.90
2019-06-07T08:39:06.781Z,99.90
2019-06-07T08:41:29.143Z,99.90
2019-06-07T08:46:25.845Z,99.90
2019-06-07T08:48:55.973Z,99.90
2019-06-07T08:54:08.533Z,99.90
2019-06-07T08:56:19.632Z,99.90
2019-06-07T08:58:47.274Z,99.90
2019-06-07T09:01:14.935Z,99.90
2019-06-07T09:03:42.583Z,99.90
2019-06-07T09:06:54.000Z,99.90
2019-06-07T09:08:39.590Z,99.90
2019-06-07T09:11:11.183Z,99.90
2019-06-07T09:13:36.669Z,99.90
2019-06-07T09:16:08.533Z,99.90
2019-06-07T09:23:31.833Z,99.90
2019-06-07T09:26:08.064Z,99.90
2019-06-07T09:35:53.090Z,99.90
2019-06-07T09:38:26.264Z,99.90
2019-06-07T09:40:50.177Z,99.90
2019-06-07T09:44:00.003Z,99.90
2019-06-07T09:45:47.556Z,99.90
2019-06-07T09:48:23.835Z,99.90
2019-06-07T09:55:41.255Z,99.90
2019-06-07T09:58:49.747Z,99.90
2019-06-07T10:00:41.472Z,99.90
2019-06-07T10:03:17.811Z,99.90
2019-06-07T10:05:38.011Z,99.90
2019-06-07T10:08:37.013Z,99.90
2019-06-07T10:13:04.095Z,99.90
2019-06-07T10:18:00.682Z,99.90
2019-06-07T10:20:28.471Z,99.90
2019-06-07T10:22:56.136Z,99.90
2019-06-07T10:25:23.788Z,99.90
2019-06-07T10:27:51.507Z,99.90
2019-06-07T10:30:19.372Z,99.90
2019-06-07T10:35:16.556Z,99.90
2019-06-07T10:40:11.452Z,99.90
2019-06-07T10:42:39.145Z,99.90
2019-06-07T10:45:08.234Z,99.90
2019-06-07T10:47:36.464Z,99.90
2019-06-07T10:50:05.890Z,99.90
2019-06-07T10:52:33.727Z,99.90
2019-06-07T10:55:02.529Z,99.90
2019-06-07T10:59:57.604Z,99.90
2019-06-07T11:02:25.332Z,99.90
2019-06-07T11:07:20.368Z,99.90
2019-06-07T11:10:05.390Z,99.90
2019-06-07T11:12:18.350Z,99.90
2019-06-07T11:14:46.069Z,99.90
2019-06-07T11:17:15.512Z,99.90
2019-06-07T11:19:43.241Z,99.90
2019-06-07T11:22:12.122Z,99.90
2019-06-07T11:24:40.081Z,99.90
2019-06-07T11:27:09.173Z,99.90
2019-06-07T11:32:04.558Z,99.90
2019-06-07T11:36:59.614Z,99.90
2019-06-07T11:39:27.288Z,99.90
2019-06-07T11:41:55.932Z,99.90
2019-06-07T11:44:23.613Z,99.90
2019-06-07T11:46:51.280Z,99.90
2019-06-07T11:49:20.320Z,99.90
2019-06-07T11:51:48.425Z,99.90
2019-06-07T11:56:44.161Z,99.90
2019-06-07T11:59:11.824Z,99.90
2019-06-07T12:04:07.451Z,99.90
2019-06-07T12:09:02.849Z,99.90
2019-06-07T12:11:30.516Z,99.90
2019-06-07T12:13:58.181Z,99.90
2019-06-07T12:16:25.848Z,99.90
2019-06-07T12:18:53.516Z,99.90
2019-06-07T12:21:21.173Z,99.90
2019-06-07T12:26:16.599Z,99.90
2019-06-07T12:28:44.411Z,99.90
2019-06-07T12:31:13.036Z,99.90
2019-06-07T12:36:08.111Z,97.80
2019-06-07T12:38:36.469Z,99.00
2019-06-07T12:43:31.539Z,96.30
2019-06-07T12:45:59.265Z,96.60
2019-06-07T12:48:26.993Z,94.80
2019-06-07T12:50:54.748Z,95.80
2019-06-07T12:58:28.170Z,95.50
2019-06-07T13:00:48.355Z,97.10
2019-06-07T13:03:16.281Z,93.70
2019-06-07T13:10:38.860Z,90.50
2019-06-07T13:13:06.601Z,90.50
2019-06-07T13:15:34.255Z,92.50
2019-06-07T13:18:01.899Z,92.60
2019-06-07T13:20:29.631Z,91.40
2019-06-07T13:22:57.327Z,90.20
2019-06-07T13:27:54.084Z,87.50
2019-06-07T13:30:23.501Z,88.20
2019-06-07T13:32:52.347Z,86.80
2019-06-07T13:35:21.725Z,86.80
2019-06-07T13:40:19.243Z,84.50
2019-06-07T13:42:46.478Z,82.70
2019-06-07T13:45:14.215Z,83.00
2019-06-07T13:47:41.878Z,80.60
2019-06-07T13:50:10.011Z,77.90
2019-06-07T13:52:37.854Z,81.80
2019-06-07T13:55:06.282Z,78.70
2019-06-07T13:57:33.945Z,78.80
2019-06-07T14:00:09.999Z,74.90
2019-06-07T14:02:31.016Z,71.30
2019-06-07T14:07:27.933Z,68.80
2019-06-07T14:09:55.569Z,72.90
2019-06-07T14:12:24.138Z,72.90
2019-06-07T14:14:51.876Z,72.60
2019-06-07T14:17:19.528Z,71.70
2019-06-07T14:19:47.198Z,68.40
2019-06-07T14:22:14.852Z,69.50
2019-06-07T14:24:42.509Z,67.60
2019-06-07T14:27:10.164Z,65.40
2019-06-07T14:29:37.917Z,67.10
2019-06-07T14:34:33.033Z,66.20
2019-06-07T14:39:29.511Z,64.20
2019-06-07T14:42:08.967Z,63.50
2019-06-07T14:44:27.901Z,64.30
2019-06-07T14:46:55.556Z,64.10
2019-06-07T14:49:24.236Z,61.70
2019-06-07T14:51:52.263Z,64.60
2019-06-07T14:54:20.001Z,63.10
2019-06-07T14:56:47.744Z,63.90
2019-06-07T15:01:42.848Z,61.50
2019-06-07T15:04:10.576Z,60.90
2019-06-07T15:06:38.970Z,62.00
2019-06-07T15:09:07.146Z,63.00
2019-06-07T15:11:35.026Z,63.20
2019-06-07T15:14:02.748Z,62.30
2019-06-07T15:16:31.920Z,61.10
2019-06-07T15:18:59.779Z,62.00
2019-06-07T15:21:28.702Z,62.70
2019-06-07T15:23:56.462Z,62.50
2019-06-07T15:28:51.530Z,57.70
2019-06-07T15:33:46.564Z,59.10
2019-06-07T15:36:14.279Z,57.80
2019-06-07T15:38:41.977Z,59.50
2019-06-07T15:41:09.762Z,59.40
2019-06-07T15:46:05.244Z,59.10
2019-06-07T15:48:33.967Z,58.90
2019-06-07T15:51:01.767Z,59.00
2019-06-07T15:53:32.780Z,59.10
2019-06-07T15:55:58.864Z,59.90
2019-06-07T15:58:26.566Z,56.70
2019-06-07T16:00:54.280Z,57.70
2019-06-07T16:03:21.959Z,57.00
2019-06-07T16:05:49.624Z,56.90
2019-06-07T16:08:17.356Z,57.20
2019-06-07T16:10:44.999Z,58.10
2019-06-07T16:13:12.657Z,58.60
2019-06-07T16:15:41.417Z,59.40
2019-06-07T16:18:09.172Z,59.00
2019-06-07T16:23:05.276Z,58.30
2019-06-07T16:25:33.957Z,58.60
2019-06-07T16:28:01.719Z,57.90
2019-06-07T16:30:29.384Z,57.00
2019-06-07T16:32:57.048Z,58.00
2019-06-07T16:37:52.546Z,57.50
2019-06-07T16:40:20.590Z,58.70
2019-06-07T16:42:49.132Z,58.30
2019-06-07T16:45:17.267Z,58.60
2019-06-07T16:47:47.107Z,57.50
2019-06-07T16:50:14.551Z,58.40
2019-06-07T16:52:44.019Z,59.60
2019-06-07T16:55:12.081Z,59.80
2019-06-07T16:57:40.979Z,59.60
2019-06-07T17:00:09.269Z,61.90
2019-06-07T17:05:07.412Z,67.90
2019-06-07T17:07:35.231Z,74.20
2019-06-07T17:10:04.743Z,91.70
2019-06-07T17:14:59.827Z,65.40
2019-06-07T17:17:27.470Z,68.20
2019-06-07T17:19:55.102Z,68.90
2019-06-07T17:22:22.798Z,69.80
2019-06-07T17:24:50.439Z,70.40
2019-06-07T17:27:18.090Z,71.00
2019-06-07T17:32:15.982Z,69.80
2019-06-07T17:34:44.326Z,71.00
2019-06-07T17:37:12.066Z,69.80
2019-06-07T17:39:40.621Z,71.70
2019-06-07T17:42:08.527Z,72.40
2019-06-07T17:44:36.951Z,73.10
2019-06-07T17:47:04.615Z,73.80
2019-06-07T17:51:59.640Z,74.20
2019-06-07T17:54:27.288Z,76.40
2019-06-07T17:59:22.291Z,75.50
2019-06-07T18:02:11.167Z,77.00
2019-06-07T18:06:47.320Z,77.80
2019-06-07T18:09:15.183Z,78.80
2019-06-07T18:11:43.912Z,79.00
2019-06-07T18:14:11.736Z,78.50
2019-06-07T18:16:39.367Z,79.80
2019-06-07T18:19:07.027Z,80.20
2019-06-07T18:21:34.680Z,81.00
2019-06-07T18:24:02.352Z,81.10
2019-06-07T18:26:29.983Z,81.40
2019-06-07T18:28:58.984Z,81.70
2019-06-07T18:31:26.995Z,82.50
2019-06-07T18:36:22.817Z,87.90
2019-06-07T18:38:50.928Z,88.70
2019-06-07T18:41:18.570Z,88.80
2019-06-07T18:43:47.064Z,88.20
2019-06-07T18:46:14.784Z,87.30
2019-06-07T18:48:42.426Z,87.30
2019-06-07T18:51:10.062Z,87.40
2019-06-07T18:53:37.744Z,88.00
2019-06-07T18:56:05.480Z,88.80
2019-06-07T18:58:33.243Z,89.80
2019-06-07T19:01:00.935Z,89.90
2019-06-07T19:05:56.311Z,89.10
2019-06-07T19:08:24.080Z,90.20
2019-06-07T19:10:52.645Z,90.40
2019-06-07T19:13:20.332Z,90.90
2019-06-07T19:15:49.266Z,90.90
2019-06-07T19:20:44.395Z,92.10
2019-06-07T19:23:12.055Z,92.50
2019-06-07T19:25:39.800Z,92.70
2019-06-07T19:28:07.505Z,92.80
2019-06-07T19:30:35.210Z,96.00
2019-06-07T19:33:02.915Z,97.10
2019-06-07T19:35:30.560Z,99.90
2019-06-07T19:37:58.271Z,99.90
2019-06-07T19:40:25.954Z,99.90
2019-06-07T19:42:54.533Z,99.90
2019-06-07T19:45:30.261Z,99.90
2019-06-07T19:52:47.540Z,99.90
2019-06-07T20:00:14.110Z,99.90
2019-06-07T20:02:40.010Z,99.90
2019-06-07T20:05:09.242Z,99.90
2019-06-07T20:07:36.933Z,99.90
2019-06-07T20:10:06.174Z,99.90
2019-06-07T20:12:33.864Z,99.90
2019-06-07T20:17:30.613Z,99.90
2019-06-07T20:19:58.307Z,99.90
2019-06-07T20:22:26.049Z,99.90
2019-06-07T20:24:53.713Z,99.90
2019-06-07T20:29:48.788Z,99.90
2019-06-07T20:32:16.423Z,99.90
2019-06-07T20:37:12.606Z,99.90
2019-06-07T20:39:40.347Z,99.90
2019-06-07T21:41:12.574Z,99.90
2019-06-07T21:43:40.412Z,99.90
2019-06-07T21:46:12.099Z,99.90
2019-06-07T21:48:37.549Z,99.90
2019-06-07T21:51:06.370Z,99.90
2019-06-07T21:53:34.168Z,99.90
2019-06-07T21:56:02.921Z,99.90
2019-06-07T21:58:30.693Z,99.90
2019-06-07T22:01:04.220Z,99.90
2019-06-07T22:03:32.441Z,99.90
2019-06-07T22:06:00.099Z,99.90
2019-06-07T22:08:27.747Z,99.90
2019-06-07T22:10:55.398Z,99.90
2019-06-07T22:13:23.043Z,99.90
2019-06-07T22:15:50.721Z,99.90
2019-06-07T22:18:18.393Z,99.90
2019-06-07T22:20:46.052Z,99.90
2019-06-07T22:23:14.887Z,99.90
2019-06-07T22:25:42.615Z,99.90
2019-06-07T22:28:10.283Z,99.90
2019-06-07T22:30:37.984Z,99.90
2019-06-07T22:33:06.708Z,99.90
2019-06-07T22:35:34.367Z,99.90
2019-06-07T22:38:02.026Z,99.90
2019-06-07T23:02:57.011Z,99.90
2019-06-07T23:05:24.662Z,99.90
2019-06-07T23:07:52.421Z,99.90
2019-06-07T23:10:20.181Z,99.90
2019-06-07T23:12:48.198Z,99.90
2019-06-07T23:15:16.011Z,99.90
2019-06-07T23:17:43.664Z,99.90
2019-06-07T23:20:11.818Z,99.90
2019-06-07T23:22:39.671Z,99.90
2019-06-07T23:43:04.024Z,99.90
2019-06-07T23:45:31.671Z,99.90
2019-06-07T23:47:59.303Z,99.90
2019-06-07T23:50:26.935Z,99.90
2019-06-07T23:52:54.612Z,99.90
2019-06-07T23:55:22.415Z,99.90
2019-06-07T23:57:50.057Z,99.90
